Time;durP1;ratioP1;P1;durP2;ratioP2;P2;SDS_P1;SDS_P2;PMS_P1;PMS_P2;Temp;Humidity;BMP_temperature;BMP_pressure;BME280_temperature;BME280_humidity;BME280_pressure;Samples;Min_cycle;Max_cycle;Signal;HPM_P1;HPM_P2
2022/10/18 00:00:11;;;;;;;;;;;6.20;99.90;;;;;;5052966;28;19939;-55
2022/10/18 00:02:38;;;;;;;;;;;6.20;99.90;;;;;;5010378;28;19937;-55
2022/10/18 00:05:06;;;;;;;;;;;6.20;99.90;;;;;;5041407;28;19925;-55
2022/10/18 00:07:34;;;;;;;;;;;6.20;99.90;;;;;;4970958;28;19926;-55
2022/10/18 00:10:01;;;;;;;;;;;6.20;99.90;;;;;;5026967;28;19926;-55
2022/10/18 00:12:31;;;;;;;;;;;6.10;99.90;;;;;;4949236;29;19930;-55
2022/10/18 00:14:58;;;;;;;;;;;6.10;99.90;;;;;;5013737;28;19924;-55
2022/10/18 00:17:26;;;;;;;;;;;6.10;99.90;;;;;;5049980;28;19925;-55
2022/10/18 00:19:54;;;;;;;;;;;6.10;99.90;;;;;;4968180;28;19926;-55
2022/10/18 00:22:21;;;;;;;;;;;6.10;99.90;;;;;;4987605;28;19929;-55
2022/10/18 00:24:49;;;;;;;;;;;6.00;99.90;;;;;;5003656;28;19950;-56
2022/10/18 00:27:16;;;;;;;;;;;6.00;99.90;;;;;;4964363;28;20270;-55
2022/10/18 00:29:44;;;;;;;;;;;6.00;99.90;;;;;;5063369;28;19924;-55
2022/10/18 00:32:11;;;;;;;;;;;6.00;99.90;;;;;;5045474;28;19926;-56
2022/10/18 00:34:39;;;;;;;;;;;6.00;99.90;;;;;;5024116;28;20386;-56
2022/10/18 00:37:07;;;;;;;;;;;5.90;99.90;;;;;;4976199;28;19958;-55
2022/10/18 00:39:34;;;;;;;;;;;5.90;99.90;;;;;;5041382;28;19924;-55
2022/10/18 00:42:02;;;;;;;;;;;6.00;99.90;;;;;;5014949;28;19933;-56
2022/10/18 00:44:29;;;;;;;;;;;5.90;99.90;;;;;;5010077;28;20482;-56
2022/10/18 00:47:01;;;;;;;;;;;5.90;99.90;;;;;;5056417;28;19924;-56
2022/10/18 00:49:31;;;;;;;;;;;5.80;99.90;;;;;;5010221;28;19997;-56
2022/10/18 00:51:58;;;;;;;;;;;5.80;99.90;;;;;;4968029;28;19953;-56
2022/10/18 00:54:26;;;;;;;;;;;5.80;99.90;;;;;;5003664;28;19931;-56
2022/10/18 00:56:54;;;;;;;;;;;5.80;99.90;;;;;;4951980;28;19927;-56
2022/10/18 00:59:22;;;;;;;;;;;5.80;99.90;;;;;;5042640;28;20528;-56
2022/10/18 01:01:50;;;;;;;;;;;5.80;99.90;;;;;;5067951;28;20501;-56
2022/10/18 01:04:19;;;;;;;;;;;5.70;99.90;;;;;;5018246;28;20299;-55
2022/10/18 01:07:05;;;;;;;;;;;5.70;99.90;;;;;;5013264;28;20254;-56
2022/10/18 01:09:33;;;;;;;;;;;5.70;99.90;;;;;;5054393;28;19931;-56
2022/10/18 01:12:08;;;;;;;;;;;5.70;99.90;;;;;;4951545;28;19927;-59
2022/10/18 01:14:46;;;;;;;;;;;5.70;99.90;;;;;;4978360;28;20293;-56
2022/10/18 01:17:25;;;;;;;;;;;5.70;99.90;;;;;;4973136;28;19992;-56
2022/10/18 01:19:58;;;;;;;;;;;5.70;99.90;;;;;;5050918;28;19931;-56
2022/10/18 01:22:30;;;;;;;;;;;5.70;99.90;;;;;;5035194;28;19940;-56
2022/10/18 01:25:07;;;;;;;;;;;5.60;99.90;;;;;;5048929;28;19928;-57
2022/10/18 01:27:43;;;;;;;;;;;5.60;99.90;;;;;;4978340;28;20400;-56
2022/10/18 01:30:20;;;;;;;;;;;5.60;99.90;;;;;;5064952;28;19931;-56
2022/10/18 01:32:51;;;;;;;;;;;5.60;99.90;;;;;;5017446;28;19953;-57
2022/10/18 01:35:25;;;;;;;;;;;5.70;99.90;;;;;;4950700;28;19926;-57
2022/10/18 01:37:54;;;;;;;;;;;5.60;99.90;;;;;;5053213;28;19931;-56
2022/10/18 01:40:22;;;;;;;;;;;5.60;99.90;;;;;;5065098;28;20391;-56
2022/10/18 01:42:50;;;;;;;;;;;5.60;99.90;;;;;;4950490;28;19933;-56
2022/10/18 01:45:17;;;;;;;;;;;5.60;99.90;;;;;;4951932;28;19926;-57
2022/10/18 01:47:46;;;;;;;;;;;5.60;99.90;;;;;;4986772;28;19933;-56
2022/10/18 01:50:13;;;;;;;;;;;5.60;99.90;;;;;;4989759;28;19926;-56
2022/10/18 01:52:47;;;;;;;;;;;5.60;99.90;;;;;;4980005;28;19933;-56
2022/10/18 01:55:15;;;;;;;;;;;5.60;99.90;;;;;;4970340;28;19926;-56
2022/10/18 01:58:04;;;;;;;;;;;5.50;99.90;;;;;;5035697;28;19926;-57
2022/10/18 02:00:41;;;;;;;;;;;5.50;99.90;;;;;;4968423;28;19934;-57
2022/10/18 02:03:22;;;;;;;;;;;5.50;99.90;;;;;;4950872;28;19952;-56
2022/10/18 02:05:49;;;;;;;;;;;5.50;99.90;;;;;;5015478;28;19927;-56
2022/10/18 02:08:16;;;;;;;;;;;5.40;99.90;;;;;;5071731;28;19931;-57
2022/10/18 02:10:53;;;;;;;;;;;5.40;99.90;;;;;;5071639;28;19930;-57
2022/10/18 02:13:22;;;;;;;;;;;5.40;99.90;;;;;;5005690;28;19926;-56
2022/10/18 02:15:54;;;;;;;;;;;5.40;99.90;;;;;;4978508;28;19926;-56
2022/10/18 02:18:24;;;;;;;;;;;5.30;99.90;;;;;;5036272;28;19930;-56
2022/10/18 02:20:53;;;;;;;;;;;5.40;99.90;;;;;;4970141;28;19926;-56
2022/10/18 02:23:22;;;;;;;;;;;5.30;99.90;;;;;;4970066;28;19953;-56
2022/10/18 02:25:49;;;;;;;;;;;5.30;99.90;;;;;;4984689;28;19934;-56
2022/10/18 02:28:17;;;;;;;;;;;5.30;99.90;;;;;;4969246;28;19941;-56
2022/10/18 02:30:47;;;;;;;;;;;5.20;99.90;;;;;;4969321;28;19926;-56
2022/10/18 02:33:18;;;;;;;;;;;5.20;99.90;;;;;;5036352;28;19926;-56
2022/10/18 02:35:51;;;;;;;;;;;5.20;99.90;;;;;;5046193;28;19933;-56
2022/10/18 02:38:19;;;;;;;;;;;5.20;99.90;;;;;;5071413;28;19929;-56
2022/10/18 02:40:47;;;;;;;;;;;5.20;99.90;;;;;;5071473;28;19944;-57
2022/10/18 02:43:14;;;;;;;;;;;5.10;99.90;;;;;;5018321;28;20393;-56
2022/10/18 02:45:42;;;;;;;;;;;5.10;99.90;;;;;;4969762;28;20418;-56
2022/10/18 02:48:09;;;;;;;;;;;5.00;99.90;;;;;;4969780;28;19930;-57
2022/10/18 02:50:37;;;;;;;;;;;5.00;99.90;;;;;;5036234;28;20373;-56
2022/10/18 02:53:04;;;;;;;;;;;5.00;99.90;;;;;;4969491;28;19933;-56
2022/10/18 02:55:32;;;;;;;;;;;5.00;99.90;;;;;;4971019;28;19933;-56
2022/10/18 02:57:59;;;;;;;;;;;5.00;99.90;;;;;;4973014;28;19933;-57
2022/10/18 03:00:26;;;;;;;;;;;5.00;99.90;;;;;;4972816;28;20293;-57
2022/10/18 03:02:54;;;;;;;;;;;5.00;99.90;;;;;;4973001;28;20392;-56
2022/10/18 03:05:21;;;;;;;;;;;5.00;99.90;;;;;;4972857;28;19926;-57
2022/10/18 03:07:49;;;;;;;;;;;5.00;99.90;;;;;;5069423;28;19929;-57
2022/10/18 03:10:16;;;;;;;;;;;4.90;99.90;;;;;;5074557;28;19936;-57
2022/10/18 03:12:43;;;;;;;;;;;4.90;99.90;;;;;;5074712;28;19932;-56
2022/10/18 03:15:11;;;;;;;;;;;4.90;99.90;;;;;;5074682;28;19947;-57
2022/10/18 03:17:38;;;;;;;;;;;4.90;99.90;;;;;;5056727;28;19924;-56
2022/10/18 03:20:06;;;;;;;;;;;4.80;99.90;;;;;;5074515;28;19931;-57
2022/10/18 03:22:33;;;;;;;;;;;4.70;99.90;;;;;;5090018;28;19924;-57
2022/10/18 03:25:01;;;;;;;;;;;4.70;99.90;;;;;;5074353;28;19924;-57
2022/10/18 03:27:28;;;;;;;;;;;4.60;99.90;;;;;;5074366;28;19924;-57
2022/10/18 03:29:56;;;;;;;;;;;4.60;99.90;;;;;;5074380;28;19928;-57
2022/10/18 03:32:23;;;;;;;;;;;4.60;99.90;;;;;;5074145;28;20414;-57
2022/10/18 03:34:51;;;;;;;;;;;4.50;99.90;;;;;;5074283;28;20291;-56
2022/10/18 03:37:18;;;;;;;;;;;4.50;99.90;;;;;;5074121;28;20422;-57
2022/10/18 03:39:45;;;;;;;;;;;4.50;99.90;;;;;;5074010;28;19928;-57
2022/10/18 03:42:13;;;;;;;;;;;4.50;99.90;;;;;;5074164;28;19932;-57
2022/10/18 03:44:40;;;;;;;;;;;4.40;99.90;;;;;;5073909;28;19924;-57
2022/10/18 03:47:07;;;;;;;;;;;4.40;99.90;;;;;;5074037;28;19925;-57
2022/10/18 03:49:35;;;;;;;;;;;4.40;99.90;;;;;;5073969;28;19931;-57
2022/10/18 03:52:02;;;;;;;;;;;4.40;99.90;;;;;;5073776;28;19924;-57
2022/10/18 03:54:30;;;;;;;;;;;4.40;99.90;;;;;;5029805;28;19930;-56
2022/10/18 03:56:57;;;;;;;;;;;4.40;99.90;;;;;;4971385;28;20535;-57
2022/10/18 03:59:24;;;;;;;;;;;4.40;99.90;;;;;;4972114;28;19926;-57
2022/10/18 04:01:52;;;;;;;;;;;4.40;99.90;;;;;;4972056;28;19933;-56
2022/10/18 04:04:19;;;;;;;;;;;4.40;99.90;;;;;;4971895;28;19941;-56
2022/10/18 04:06:47;;;;;;;;;;;4.30;99.90;;;;;;5024876;28;19924;-57
2022/10/18 04:09:14;;;;;;;;;;;4.30;99.90;;;;;;5073705;28;20379;-56
2022/10/18 04:11:41;;;;;;;;;;;4.30;99.90;;;;;;5073650;28;19924;-56
2022/10/18 04:14:09;;;;;;;;;;;4.30;99.90;;;;;;5073658;28;20380;-56
2022/10/18 04:16:36;;;;;;;;;;;4.30;99.90;;;;;;5055608;28;20380;-58
2022/10/18 04:19:04;;;;;;;;;;;4.20;99.90;;;;;;5055412;28;20406;-58
2022/10/18 04:21:31;;;;;;;;;;;4.30;99.90;;;;;;5073463;28;19932;-58
2022/10/18 04:23:58;;;;;;;;;;;4.20;99.90;;;;;;5073474;28;20283;-58
2022/10/18 04:26:26;;;;;;;;;;;4.30;99.90;;;;;;5073542;28;19924;-58
2022/10/18 04:28:53;;;;;;;;;;;4.30;99.90;;;;;;5073169;28;19924;-58
2022/10/18 04:31:21;;;;;;;;;;;4.20;99.90;;;;;;5055510;28;19932;-58
2022/10/18 04:33:49;;;;;;;;;;;4.20;99.90;;;;;;5073205;28;19924;-58
2022/10/18 04:36:16;;;;;;;;;;;4.20;99.90;;;;;;5071792;28;20294;-58
2022/10/18 04:38:43;;;;;;;;;;;4.20;99.90;;;;;;5073082;28;20401;-57
2022/10/18 04:41:11;;;;;;;;;;;4.20;99.90;;;;;;5072919;28;20319;-58
2022/10/18 04:43:38;;;;;;;;;;;4.20;99.90;;;;;;4974633;28;19927;-57
2022/10/18 04:46:06;;;;;;;;;;;4.10;99.90;;;;;;4971153;28;19930;-58
2022/10/18 04:48:33;;;;;;;;;;;4.10;99.90;;;;;;4954689;28;20377;-58
2022/10/18 04:51:01;;;;;;;;;;;4.10;99.90;;;;;;4947654;28;19927;-58
2022/10/18 04:53:28;;;;;;;;;;;4.10;99.90;;;;;;4948493;29;19927;-57
2022/10/18 04:55:56;;;;;;;;;;;4.10;99.90;;;;;;4948724;29;19930;-57
2022/10/18 04:58:23;;;;;;;;;;;4.10;99.90;;;;;;5013645;28;19935;-57
2022/10/18 05:00:51;;;;;;;;;;;4.10;99.90;;;;;;5069170;28;19935;-57
2022/10/18 05:03:18;;;;;;;;;;;4.00;99.90;;;;;;5022779;28;19933;-58
2022/10/18 05:05:46;;;;;;;;;;;4.00;99.90;;;;;;4957249;28;19926;-57
2022/10/18 05:08:28;;;;;;;;;;;4.00;99.90;;;;;;5049371;28;19928;-57
2022/10/18 05:10:56;;;;;;;;;;;3.90;99.90;;;;;;5068993;28;20514;-58
2022/10/18 05:13:23;;;;;;;;;;;4.00;99.90;;;;;;5068877;28;19925;-58
2022/10/18 05:15:51;;;;;;;;;;;4.00;99.90;;;;;;5069001;28;19925;-58
2022/10/18 05:18:18;;;;;;;;;;;3.90;99.90;;;;;;5019207;28;19927;-58
2022/10/18 05:20:46;;;;;;;;;;;3.90;99.90;;;;;;4948353;29;19934;-58
2022/10/18 05:23:13;;;;;;;;;;;3.90;99.90;;;;;;5012628;28;20696;-58
2022/10/18 05:25:42;;;;;;;;;;;3.90;99.90;;;;;;5065392;28;20310;-58
2022/10/18 05:28:09;;;;;;;;;;;3.90;99.90;;;;;;5065037;28;20477;-58
2022/10/18 05:30:53;;;;;;;;;;;3.90;99.90;;;;;;5065495;28;19928;-57
2022/10/18 05:33:20;;;;;;;;;;;3.90;99.90;;;;;;5038711;28;20369;-58
2022/10/18 05:35:48;;;;;;;;;;;3.90;99.90;;;;;;4961865;28;20374;-58
2022/10/18 05:38:15;;;;;;;;;;;3.90;99.90;;;;;;5068219;28;20398;-58
2022/10/18 05:40:43;;;;;;;;;;;3.90;99.90;;;;;;5083994;28;19931;-58
2022/10/18 05:43:10;;;;;;;;;;;3.90;99.90;;;;;;5068487;28;19932;-58
2022/10/18 05:45:37;;;;;;;;;;;3.90;99.90;;;;;;5066807;28;20429;-58
2022/10/18 05:48:06;;;;;;;;;;;3.80;99.90;;;;;;5026872;28;19927;-58
2022/10/18 05:50:34;;;;;;;;;;;3.90;99.90;;;;;;4944697;28;19937;-58
2022/10/18 05:53:06;;;;;;;;;;;3.90;99.90;;;;;;4977536;28;20263;-58
2022/10/18 05:55:44;;;;;;;;;;;3.90;99.90;;;;;;4962093;28;20234;-58
2022/10/18 05:58:12;;;;;;;;;;;4.00;99.90;;;;;;4998281;28;19925;-58
2022/10/18 06:00:39;;;;;;;;;;;4.10;99.90;;;;;;5065026;28;19932;-58
2022/10/18 06:03:06;;;;;;;;;;;4.10;99.90;;;;;;5030440;28;19930;-59
2022/10/18 06:05:34;;;;;;;;;;;4.20;99.90;;;;;;5014176;28;19930;-58
2022/10/18 06:08:02;;;;;;;;;;;4.20;99.90;;;;;;5080176;28;20299;-58
2022/10/18 06:10:37;;;;;;;;;;;4.30;99.90;;;;;;5066765;28;19925;-58
2022/10/18 06:13:04;;;;;;;;;;;4.40;99.90;;;;;;5068118;28;19924;-58
2022/10/18 06:15:32;;;;;;;;;;;4.40;99.90;;;;;;5050172;28;19924;-58
2022/10/18 06:17:59;;;;;;;;;;;4.50;99.90;;;;;;5058440;28;19925;-58
2022/10/18 06:20:27;;;;;;;;;;;4.60;99.90;;;;;;4947673;28;20377;-58
2022/10/18 06:22:54;;;;;;;;;;;4.60;99.90;;;;;;4995936;28;20089;-58
2022/10/18 06:25:22;;;;;;;;;;;4.70;99.90;;;;;;5067826;28;19974;-58
2022/10/18 06:27:49;;;;;;;;;;;4.70;99.90;;;;;;5080280;28;20299;-58
2022/10/18 06:30:17;;;;;;;;;;;4.70;99.90;;;;;;5065852;28;19929;-58
2022/10/18 06:32:44;;;;;;;;;;;4.70;99.90;;;;;;5050575;28;19925;-58
2022/10/18 06:35:12;;;;;;;;;;;4.80;99.90;;;;;;5033398;28;19941;-58
2022/10/18 06:37:39;;;;;;;;;;;4.80;99.90;;;;;;5019834;28;19924;-58
2022/10/18 06:40:07;;;;;;;;;;;4.80;99.90;;;;;;5069399;28;19924;-58
2022/10/18 06:42:34;;;;;;;;;;;4.90;99.90;;;;;;5071507;28;19932;-58
2022/10/18 06:45:02;;;;;;;;;;;5.00;99.90;;;;;;5071747;28;20456;-58
2022/10/18 06:47:29;;;;;;;;;;;5.00;99.90;;;;;;5071444;28;20411;-58
2022/10/18 06:49:57;;;;;;;;;;;5.00;99.90;;;;;;5020853;28;20312;-58
2022/10/18 06:52:24;;;;;;;;;;;5.10;99.90;;;;;;4983919;28;19924;-58
2022/10/18 06:54:52;;;;;;;;;;;5.20;99.90;;;;;;5071868;28;19928;-57
2022/10/18 06:57:20;;;;;;;;;;;5.20;99.90;;;;;;5071344;28;19925;-58
2022/10/18 06:59:48;;;;;;;;;;;5.20;99.90;;;;;;5017366;28;19930;-58
2022/10/18 07:02:16;;;;;;;;;;;5.30;99.90;;;;;;4994869;28;20586;-58
2022/10/18 07:04:44;;;;;;;;;;;5.30;99.90;;;;;;4956851;28;20109;-59
2022/10/18 07:07:11;;;;;;;;;;;5.40;99.90;;;;;;4969715;28;19937;-58
2022/10/18 07:09:39;;;;;;;;;;;5.40;99.90;;;;;;4952512;28;19934;-59
2022/10/18 07:12:06;;;;;;;;;;;5.40;99.90;;;;;;5017480;28;19934;-59
2022/10/18 07:14:34;;;;;;;;;;;5.40;99.90;;;;;;4956441;28;19926;-57
2022/10/18 07:17:01;;;;;;;;;;;5.50;99.90;;;;;;4963030;28;19926;-57
2022/10/18 07:19:28;;;;;;;;;;;5.50;99.90;;;;;;4961169;28;19926;-57
2022/10/18 07:21:56;;;;;;;;;;;5.50;99.90;;;;;;4950627;28;20293;-56
2022/10/18 07:24:23;;;;;;;;;;;5.50;99.90;;;;;;4967635;28;19926;-57
2022/10/18 07:26:51;;;;;;;;;;;5.50;99.90;;;;;;4968582;28;20260;-57
2022/10/18 07:29:18;;;;;;;;;;;5.60;99.90;;;;;;4958894;28;19933;-59
2022/10/18 07:31:46;;;;;;;;;;;5.60;99.90;;;;;;4959358;28;19933;-57
2022/10/18 07:34:13;;;;;;;;;;;5.60;99.90;;;;;;5061811;28;19932;-58
2022/10/18 07:36:41;;;;;;;;;;;5.70;99.90;;;;;;5034462;28;19951;-58
2022/10/18 07:39:08;;;;;;;;;;;5.70;99.90;;;;;;5070351;28;19925;-58
2022/10/18 07:41:36;;;;;;;;;;;5.70;99.90;;;;;;5070265;28;19925;-58
2022/10/18 07:44:03;;;;;;;;;;;5.70;99.90;;;;;;5070451;28;19928;-58
2022/10/18 07:46:31;;;;;;;;;;;5.70;99.90;;;;;;4988365;28;19933;-57
2022/10/18 07:48:58;;;;;;;;;;;5.70;99.90;;;;;;5044548;28;19971;-58
2022/10/18 07:51:26;;;;;;;;;;;5.70;99.90;;;;;;4993395;28;19933;-58
2022/10/18 07:53:54;;;;;;;;;;;5.70;99.90;;;;;;5047906;28;19933;-58
2022/10/18 07:56:21;;;;;;;;;;;5.70;99.90;;;;;;5052247;28;19932;-58
2022/10/18 07:58:50;;;;;;;;;;;5.70;99.90;;;;;;5007419;28;19926;-58
2022/10/18 08:01:18;;;;;;;;;;;5.70;99.90;;;;;;5032844;28;19933;-59
2022/10/18 08:03:45;;;;;;;;;;;5.70;99.90;;;;;;4989750;28;20409;-59
2022/10/18 08:06:15;;;;;;;;;;;5.80;99.90;;;;;;4976831;28;19926;-57
2022/10/18 08:08:43;;;;;;;;;;;5.80;99.90;;;;;;4978873;28;19940;-58
2022/10/18 08:11:13;;;;;;;;;;;5.90;99.90;;;;;;4986339;28;19952;-58
2022/10/18 08:13:41;;;;;;;;;;;5.90;99.90;;;;;;4994794;28;19926;-59
2022/10/18 08:16:10;;;;;;;;;;;5.90;99.90;;;;;;4987106;28;20400;-58
2022/10/18 08:18:38;;;;;;;;;;;6.00;99.90;;;;;;5024711;28;19924;-58
2022/10/18 08:21:06;;;;;;;;;;;6.00;99.90;;;;;;4960612;28;20369;-58
2022/10/18 08:23:34;;;;;;;;;;;6.10;99.90;;;;;;4985193;28;19926;-58
2022/10/18 08:26:03;;;;;;;;;;;6.10;99.90;;;;;;4968328;28;19930;-58
2022/10/18 08:28:31;;;;;;;;;;;6.20;99.90;;;;;;5023762;28;19931;-59
2022/10/18 08:31:05;;;;;;;;;;;6.30;99.90;;;;;;5012241;28;19949;-58
2022/10/18 08:33:34;;;;;;;;;;;6.40;99.90;;;;;;5032621;28;19931;-61
2022/10/18 08:36:06;;;;;;;;;;;6.40;99.90;;;;;;5034880;28;19951;-58
2022/10/18 08:38:34;;;;;;;;;;;6.50;99.90;;;;;;5051377;28;19925;-58
2022/10/18 08:41:16;;;;;;;;;;;6.60;99.90;;;;;;5069410;28;19924;-58
2022/10/18 08:43:48;;;;;;;;;;;6.70;99.90;;;;;;5051768;28;20456;-57
2022/10/18 08:46:16;;;;;;;;;;;6.80;99.90;;;;;;5055559;28;19929;-58
2022/10/18 08:48:48;;;;;;;;;;;6.90;99.90;;;;;;5033374;28;19932;-58
2022/10/18 08:51:26;;;;;;;;;;;7.00;99.90;;;;;;5044159;28;20546;-58
2022/10/18 08:53:58;;;;;;;;;;;7.10;99.90;;;;;;4985148;28;19936;-57
2022/10/18 08:56:26;;;;;;;;;;;7.20;99.90;;;;;;4985976;28;19926;-58
2022/10/18 08:58:53;;;;;;;;;;;7.30;99.90;;;;;;4980642;28;19926;-58
2022/10/18 09:01:21;;;;;;;;;;;7.50;99.90;;;;;;5031905;28;19934;-58
2022/10/18 09:04:03;;;;;;;;;;;7.60;99.90;;;;;;4969147;28;19950;-58
2022/10/18 09:06:49;;;;;;;;;;;7.70;99.90;;;;;;4972718;28;19926;-58
2022/10/18 09:09:17;;;;;;;;;;;7.80;99.90;;;;;;5052048;28;20107;-55
2022/10/18 09:11:59;;;;;;;;;;;8.00;99.90;;;;;;5048118;28;19924;-55
2022/10/18 09:14:41;;;;;;;;;;;8.20;99.90;;;;;;4961377;28;20024;-56
2022/10/18 09:17:31;;;;;;;;;;;8.30;99.90;;;;;;4950515;28;19930;-55
2022/10/18 09:19:58;;;;;;;;;;;8.40;99.90;;;;;;5029201;28;19926;-55
2022/10/18 09:22:49;;;;;;;;;;;8.60;99.90;;;;;;4973210;28;19925;-56
2022/10/18 09:25:17;;;;;;;;;;;8.60;99.90;;;;;;5065613;28;19935;-56
2022/10/18 09:27:49;;;;;;;;;;;8.80;99.90;;;;;;5001287;28;19963;-56
2022/10/18 09:30:28;;;;;;;;;;;8.90;99.90;;;;;;4964409;28;20453;-57
2022/10/18 09:33:03;;;;;;;;;;;9.00;99.90;;;;;;4998635;28;19928;-56
2022/10/18 09:35:38;;;;;;;;;;;9.20;99.90;;;;;;5068806;28;19929;-55
2022/10/18 09:38:08;;;;;;;;;;;9.30;99.90;;;;;;5013877;28;19924;-56
2022/10/18 09:40:43;;;;;;;;;;;9.40;99.90;;;;;;5050431;28;19924;-55
2022/10/18 09:43:22;;;;;;;;;;;9.60;99.90;;;;;;5026917;28;19925;-56
2022/10/18 09:45:51;;;;;;;;;;;9.70;99.90;;;;;;4986469;28;19940;-56
2022/10/18 09:48:26;;;;;;;;;;;10.00;99.90;;;;;;5015371;28;19931;-56
2022/10/18 09:51:04;;;;;;;;;;;10.20;99.90;;;;;;5057623;28;19951;-55
2022/10/18 09:53:43;;;;;;;;;;;10.30;99.90;;;;;;5018156;28;19934;-56
2022/10/18 09:56:14;;;;;;;;;;;10.50;99.90;;;;;;4947965;29;19926;-55
2022/10/18 09:58:43;;;;;;;;;;;10.70;99.90;;;;;;5020644;28;20261;-56
2022/10/18 10:01:13;;;;;;;;;;;10.60;99.90;;;;;;5033267;28;20234;-56
2022/10/18 10:03:40;;;;;;;;;;;11.00;99.90;;;;;;4984200;28;19950;-56
2022/10/18 10:06:11;;;;;;;;;;;11.10;99.90;;;;;;4987335;28;20305;-56
2022/10/18 10:08:43;;;;;;;;;;;11.20;99.90;;;;;;5021639;28;19931;-56
2022/10/18 10:11:29;;;;;;;;;;;11.40;99.90;;;;;;4992244;28;19949;-56
2022/10/18 10:14:05;;;;;;;;;;;11.60;99.90;;;;;;5044022;28;20283;-56
2022/10/18 10:16:41;;;;;;;;;;;11.70;99.90;;;;;;4989871;28;19940;-57
2022/10/18 10:19:19;;;;;;;;;;;11.90;99.90;;;;;;4959455;28;19933;-58
2022/10/18 10:21:47;;;;;;;;;;;12.00;99.90;;;;;;4957810;28;19949;-56
2022/10/18 10:24:19;;;;;;;;;;;12.20;99.90;;;;;;4960071;28;19934;-56
2022/10/18 10:26:47;;;;;;;;;;;12.30;99.90;;;;;;5022023;28;19926;-56
2022/10/18 10:29:33;;;;;;;;;;;12.50;99.90;;;;;;5047920;28;19928;-56
2022/10/18 10:32:11;;;;;;;;;;;12.60;99.90;;;;;;5065738;28;19931;-56
2022/10/18 10:34:42;;;;;;;;;;;12.80;99.90;;;;;;4962723;28;19926;-56
2022/10/18 10:37:23;;;;;;;;;;;12.90;99.90;;;;;;4987192;28;19938;-56
2022/10/18 10:40:14;;;;;;;;;;;13.00;99.90;;;;;;4950743;29;19934;-57
2022/10/18 10:43:07;;;;;;;;;;;13.20;99.90;;;;;;4988802;28;20006;-56
2022/10/18 10:46:02;;;;;;;;;;;13.30;99.90;;;;;;5072048;28;19925;-58
2022/10/18 10:48:32;;;;;;;;;;;13.50;99.90;;;;;;5069825;28;19932;-58
2022/10/18 10:51:05;;;;;;;;;;;13.70;99.90;;;;;;4993353;28;19930;-58
2022/10/18 10:53:41;;;;;;;;;;;13.80;99.90;;;;;;5021161;28;19931;-57
2022/10/18 10:56:15;;;;;;;;;;;14.00;99.90;;;;;;4988893;28;20264;-55
2022/10/18 10:58:43;;;;;;;;;;;13.70;99.90;;;;;;5031300;28;19934;-56
2022/10/18 11:01:19;;;;;;;;;;;14.20;99.90;;;;;;4966529;28;19926;-55
2022/10/18 11:03:47;;;;;;;;;;;14.40;99.90;;;;;;5045529;28;20327;-57
2022/10/18 11:06:44;;;;;;;;;;;14.50;99.90;;;;;;4999180;28;20650;-57
2022/10/18 11:09:19;;;;;;;;;;;14.70;99.90;;;;;;4982895;28;19929;-56
2022/10/18 11:11:54;;;;;;;;;;;14.90;99.90;;;;;;4988728;28;19933;-56
2022/10/18 11:14:24;;;;;;;;;;;15.10;99.90;;;;;;5047603;28;19929;-58
2022/10/18 11:16:57;;;;;;;;;;;15.40;99.90;;;;;;4984242;28;19937;-58
2022/10/18 11:19:45;;;;;;;;;;;15.50;99.90;;;;;;5024703;28;19926;-58
2022/10/18 11:22:15;;;;;;;;;;;15.80;99.90;;;;;;4968184;28;19927;-58
2022/10/18 11:24:42;;;;;;;;;;;16.00;99.90;;;;;;4999769;28;19929;-59
2022/10/18 11:27:24;;;;;;;;;;;16.30;99.90;;;;;;5036299;28;19926;-58
2022/10/18 11:30:03;;;;;;;;;;;16.50;99.90;;;;;;4969620;28;19945;-58
2022/10/18 11:32:46;;;;;;;;;;;16.80;99.90;;;;;;5000303;28;20660;-58
2022/10/18 11:35:14;;;;;;;;;;;17.10;99.90;;;;;;5003013;28;19930;-59
2022/10/18 11:37:47;;;;;;;;;;;17.30;99.90;;;;;;4989203;28;19943;-59
2022/10/18 11:40:33;;;;;;;;;;;17.50;99.90;;;;;;4954331;28;19936;-58
2022/10/18 11:43:19;;;;;;;;;;;17.70;99.90;;;;;;5006948;28;19925;-58
2022/10/18 11:46:07;;;;;;;;;;;17.90;99.90;;;;;;4981621;28;19948;-59
2022/10/18 11:48:46;;;;;;;;;;;18.20;99.90;;;;;;5030773;28;19926;-59
2022/10/18 11:51:20;;;;;;;;;;;18.40;99.90;;;;;;5032853;28;20290;-59
2022/10/18 11:54:15;;;;;;;;;;;18.60;99.90;;;;;;4965054;28;20284;-59
2022/10/18 11:56:43;;;;;;;;;;;18.90;99.90;;;;;;4953741;28;19927;-59
2022/10/18 11:59:17;;;;;;;;;;;19.20;99.90;;;;;;5021163;28;20300;-59
2022/10/18 12:02:12;;;;;;;;;;;19.50;99.90;;;;;;5054327;28;19953;-60
2022/10/18 12:04:46;;;;;;;;;;;19.80;99.90;;;;;;4971711;28;19933;-59
2022/10/18 12:07:39;;;;;;;;;;;20.10;99.90;;;;;;5018968;28;19950;-59
2022/10/18 12:10:08;;;;;;;;;;;19.80;99.90;;;;;;4942360;28;19934;-58
2022/10/18 12:12:38;;;;;;;;;;;19.40;99.90;;;;;;4963799;28;19926;-59
2022/10/18 12:15:12;;;;;;;;;;;18.90;99.90;;;;;;4970353;28;19940;-58
2022/10/18 12:17:41;;;;;;;;;;;18.40;99.90;;;;;;4979521;28;19933;-58
2022/10/18 12:20:18;;;;;;;;;;;18.50;99.90;;;;;;5032205;28;19926;-58
2022/10/18 12:22:52;;;;;;;;;;;18.90;99.90;;;;;;4991779;28;19947;-58
2022/10/18 12:25:19;;;;;;;;;;;19.40;99.90;;;;;;5048359;28;20389;-58
2022/10/18 12:28:11;;;;;;;;;;;20.00;99.90;;;;;;4983069;28;19926;-58
2022/10/18 12:30:42;;;;;;;;;;;20.50;99.00;;;;;;4975060;28;19933;-58
2022/10/18 12:33:15;;;;;;;;;;;20.90;97.90;;;;;;5033808;28;19926;-59
2022/10/18 12:36:10;;;;;;;;;;;21.30;97.60;;;;;;4998487;28;19928;-58
2022/10/18 12:38:39;;;;;;;;;;;21.60;96.20;;;;;;5021553;28;19926;-58
2022/10/18 12:41:15;;;;;;;;;;;21.90;95.40;;;;;;4957583;28;19926;-58
2022/10/18 12:43:49;;;;;;;;;;;22.00;95.50;;;;;;5007826;28;19926;-59
2022/10/18 12:46:16;;;;;;;;;;;22.10;93.80;;;;;;4987765;28;19932;-59
2022/10/18 12:49:01;;;;;;;;;;;22.20;93.20;;;;;;5035022;28;19950;-59
2022/10/18 12:51:29;;;;;;;;;;;22.40;93.30;;;;;;5069813;28;20303;-59
2022/10/18 12:53:59;;;;;;;;;;;22.40;92.90;;;;;;5030115;28;20408;-58
2022/10/18 12:56:27;;;;;;;;;;;22.40;92.50;;;;;;5014192;28;19931;-58
2022/10/18 12:59:13;;;;;;;;;;;22.60;92.40;;;;;;5026815;28;19928;-58
2022/10/18 13:02:04;;;;;;;;;;;22.70;91.80;;;;;;5055498;28;19942;-58
2022/10/18 13:04:34;;;;;;;;;;;22.90;92.10;;;;;;4972886;28;19927;-58
2022/10/18 13:07:04;;;;;;;;;;;23.10;91.50;;;;;;5029091;28;19924;-58
2022/10/18 13:09:36;;;;;;;;;;;23.00;90.00;;;;;;4996360;28;19927;-58
2022/10/18 13:12:09;;;;;;;;;;;23.00;90.00;;;;;;4973066;28;19927;-59
2022/10/18 13:14:37;;;;;;;;;;;22.80;89.20;;;;;;5018865;28;19930;-58
2022/10/18 13:17:19;;;;;;;;;;;22.80;90.10;;;;;;4967889;28;19945;-58
2022/10/18 13:20:06;;;;;;;;;;;22.80;88.90;;;;;;4963092;28;19927;-58
2022/10/18 13:23:05;;;;;;;;;;;22.90;88.90;;;;;;4981348;28;19925;-58
2022/10/18 13:25:35;;;;;;;;;;;22.90;86.10;;;;;;4952111;28;19927;-58
2022/10/18 13:28:18;;;;;;;;;;;22.90;86.70;;;;;;4978883;28;19925;-58
2022/10/18 13:31:04;;;;;;;;;;;22.90;86.10;;;;;;5048919;28;19930;-59
2022/10/18 13:33:37;;;;;;;;;;;22.80;86.60;;;;;;5030998;28;19924;-58
2022/10/18 13:36:17;;;;;;;;;;;22.80;86.30;;;;;;5068699;28;19935;-58
2022/10/18 13:38:54;;;;;;;;;;;23.00;86.20;;;;;;4963895;28;19926;-58
2022/10/18 13:41:27;;;;;;;;;;;23.00;85.30;;;;;;4967636;28;19934;-58
2022/10/18 13:44:22;;;;;;;;;;;23.00;85.70;;;;;;5010256;28;19937;-59
2022/10/18 13:46:50;;;;;;;;;;;23.10;84.50;;;;;;4986566;28;19926;-58
2022/10/18 13:49:23;;;;;;;;;;;23.10;84.10;;;;;;5052052;28;19924;-59
2022/10/18 13:52:09;;;;;;;;;;;23.10;82.90;;;;;;5068401;28;19925;-58
2022/10/18 13:54:46;;;;;;;;;;;22.90;83.40;;;;;;5009429;28;19933;-58
2022/10/18 13:57:23;;;;;;;;;;;22.80;84.20;;;;;;5046030;28;19930;-58
2022/10/18 13:59:58;;;;;;;;;;;22.60;84.40;;;;;;4966972;28;19945;-58
2022/10/18 14:02:28;;;;;;;;;;;22.10;83.60;;;;;;4956016;28;19930;-58
2022/10/18 14:05:18;;;;;;;;;;;21.40;84.20;;;;;;4953623;28;19934;-58
2022/10/18 14:07:57;;;;;;;;;;;20.60;86.10;;;;;;4992791;28;19926;-58
2022/10/18 14:10:37;;;;;;;;;;;19.80;87.20;;;;;;4959953;28;20366;-58
2022/10/18 14:13:27;;;;;;;;;;;19.20;88.40;;;;;;5050363;28;19924;-58
2022/10/18 14:15:57;;;;;;;;;;;20.00;90.20;;;;;;5054491;28;19925;-57
2022/10/18 14:18:26;;;;;;;;;;;18.40;90.50;;;;;;5031079;28;19933;-58
2022/10/18 14:21:00;;;;;;;;;;;18.00;90.90;;;;;;4966998;28;20546;-58
2022/10/18 14:23:43;;;;;;;;;;;17.80;91.30;;;;;;5020915;28;19959;-58
2022/10/18 14:26:13;;;;;;;;;;;17.50;91.60;;;;;;4966640;28;19933;-57
2022/10/18 14:28:41;;;;;;;;;;;17.30;92.00;;;;;;5020976;28;19932;-58
2022/10/18 14:31:26;;;;;;;;;;;17.20;92.30;;;;;;5068037;28;19924;-58
2022/10/18 14:33:55;;;;;;;;;;;17.00;93.30;;;;;;5068097;28;19928;-57
2022/10/18 14:36:28;;;;;;;;;;;16.90;93.50;;;;;;5042707;28;19932;-57
2022/10/18 14:38:57;;;;;;;;;;;16.80;93.70;;;;;;5008887;28;19936;-57
2022/10/18 14:41:32;;;;;;;;;;;16.70;94.00;;;;;;5034823;28;19926;-57
2022/10/18 14:44:14;;;;;;;;;;;16.70;94.30;;;;;;4982769;28;19926;-58
2022/10/18 14:46:42;;;;;;;;;;;16.60;94.60;;;;;;4966565;28;19938;-58
2022/10/18 14:49:10;;;;;;;;;;;16.50;95.30;;;;;;5038333;28;19924;-58
2022/10/18 14:51:39;;;;;;;;;;;16.50;95.60;;;;;;5056273;28;19925;-57